Time;durP1;ratioP1;P1;durP2;ratioP2;P2;SDS_P1;SDS_P2;PMS_P1;PMS_P2;Temp;Humidity;BMP_temperature;BMP_pressure;BME280_temperature;BME280_humidity;BME280_pressure;Samples;Min_cycle;Max_cycle;Signal;HPM_P1;HPM_P2
2022/03/18 00:02:26;;;;;;;53.03;26.40;;;6.00;99.90;;;;;;5074784;28;20025;-85
2022/03/18 00:04:53;;;;;;;49.25;26.83;;;5.90;99.90;;;;;;5076378;28;20064;-84
2022/03/18 00:07:20;;;;;;;47.58;26.58;;;5.90;99.90;;;;;;5019194;28;20031;-83
2022/03/18 00:09:49;;;;;;;54.33;26.90;;;5.90;99.90;;;;;;5051002;28;20056;-83
2022/03/18 00:12:15;;;;;;;54.55;26.50;;;5.90;99.90;;;;;;5035219;28;20039;-84
2022/03/18 00:14:41;;;;;;;56.08;26.75;;;5.90;99.90;;;;;;5060390;28;20093;-84
2022/03/18 00:17:08;;;;;;;49.25;25.55;;;5.80;99.90;;;;;;5052258;28;20075;-84
2022/03/18 00:19:38;;;;;;;54.65;26.48;;;5.80;99.90;;;;;;5050805;28;20033;-83
2022/03/18 00:22:06;;;;;;;51.08;24.58;;;5.80;99.90;;;;;;5076358;28;20037;-83
2022/03/18 00:24:33;;;;;;;49.58;25.83;;;5.80;99.90;;;;;;5038422;28;20110;-85
2022/03/18 00:27:03;;;;;;;53.05;25.77;;;5.80;99.90;;;;;;5051446;28;20030;-83
2022/03/18 00:29:31;;;;;;;51.40;25.83;;;5.80;99.90;;;;;;5056431;28;20090;-84
2022/03/18 00:31:57;;;;;;;56.33;27.00;;;5.80;99.90;;;;;;5031000;28;20033;-84
2022/03/18 00:34:23;;;;;;;54.60;26.58;;;5.80;99.90;;;;;;5031008;28;20222;-85
2022/03/18 00:36:49;;;;;;;57.33;25.83;;;5.80;99.90;;;;;;5034603;28;20085;-84
2022/03/18 00:39:16;;;;;;;51.50;26.10;;;5.80;99.90;;;;;;5028769;28;20053;-86
2022/03/18 00:41:42;;;;;;;53.15;26.08;;;5.80;99.90;;;;;;5087049;23;20040;-86
2022/03/18 00:44:08;;;;;;;50.63;25.38;;;5.80;99.90;;;;;;5075520;28;20408;-85
2022/03/18 00:46:34;;;;;;;54.72;27.20;;;5.70;99.90;;;;;;5085896;28;20017;-86
2022/03/18 00:54:28;;;;;;;57.00;28.05;;;5.70;99.90;;;;;;5053950;28;20065;-85
2022/03/18 00:56:54;;;;;;;55.17;27.92;;;5.60;99.90;;;;;;5054996;28;20071;-86
2022/03/18 00:59:20;;;;;;;55.30;28.70;;;5.60;99.90;;;;;;5062574;28;20033;-87
2022/03/18 01:01:46;;;;;;;54.55;29.48;;;5.60;99.90;;;;;;5031001;28;20036;-86
2022/03/18 01:04:12;;;;;;;62.53;30.77;;;5.50;99.90;;;;;;5066986;28;20029;-87
2022/03/18 01:06:38;;;;;;;66.90;32.20;;;5.40;99.90;;;;;;5049248;28;20067;-86
2022/03/18 01:09:05;;;;;;;66.15;31.80;;;5.40;99.90;;;;;;5054403;28;20043;-86
2022/03/18 01:11:32;;;;;;;67.07;31.92;;;5.30;99.90;;;;;;5061219;28;20072;-87
2022/03/18 01:13:58;;;;;;;64.57;31.25;;;5.20;99.90;;;;;;5028073;28;20037;-86
2022/03/18 01:16:24;;;;;;;58.33;30.05;;;5.10;99.90;;;;;;5048627;28;20029;-86
2022/03/18 01:18:49;;;;;;;69.38;32.47;;;5.10;99.90;;;;;;5067797;28;20040;-86
2022/03/18 01:21:15;;;;;;;58.85;31.30;;;5.10;99.90;;;;;;5064236;28;20033;-84
2022/03/18 01:23:41;;;;;;;66.57;31.73;;;5.00;99.90;;;;;;5063143;28;20074;-87
2022/03/18 01:26:07;;;;;;;64.53;32.15;;;4.90;99.90;;;;;;5047714;28;20029;-86
2022/03/18 01:28:33;;;;;;;68.88;32.05;;;4.90;99.90;;;;;;5071057;28;20108;-86
2022/03/18 01:30:58;;;;;;;65.65;31.55;;;4.90;99.90;;;;;;5032545;28;20033;-86
2022/03/18 01:33:24;;;;;;;66.05;32.83;;;4.90;99.90;;;;;;5055333;28;20036;-86
2022/03/18 01:35:51;;;;;;;65.60;30.95;;;4.90;99.90;;;;;;5030645;28;20021;-87
2022/03/18 01:38:17;;;;;;;63.65;32.08;;;4.80;99.90;;;;;;5050581;28;20112;-87
2022/03/18 01:40:42;;;;;;;62.65;31.98;;;4.80;99.90;;;;;;5075470;28;20041;-85
2022/03/18 01:43:09;;;;;;;64.07;32.05;;;4.70;99.90;;;;;;5046568;28;20028;-84
2022/03/18 01:45:35;;;;;;;66.85;33.85;;;4.70;99.90;;;;;;5063129;28;20084;-86
2022/03/18 01:48:02;;;;;;;72.60;34.75;;;4.70;99.90;;;;;;5079115;28;20025;-86
2022/03/18 01:50:28;;;;;;;69.47;34.00;;;4.60;99.90;;;;;;5042630;28;20032;-84
2022/03/18 01:52:54;;;;;;;69.10;34.00;;;4.60;99.90;;;;;;5063007;28;20055;-86
2022/03/18 01:55:20;;;;;;;71.25;33.88;;;4.60;99.90;;;;;;5047311;28;20021;-85
2022/03/18 01:57:46;;;;;;;73.93;33.65;;;4.50;99.90;;;;;;5032301;28;20037;-86
2022/03/18 02:00:13;;;;;;;69.60;33.38;;;4.40;99.90;;;;;;5046394;28;20028;-88
2022/03/18 02:02:39;;;;;;;74.30;34.25;;;4.40;99.90;;;;;;5035388;28;20024;-85
2022/03/18 02:05:05;;;;;;;67.63;32.95;;;4.40;99.90;;;;;;5076030;28;20061;-85
2022/03/18 02:07:32;;;;;;;63.38;33.45;;;4.30;99.90;;;;;;5040730;28;20028;-84
2022/03/18 02:09:58;;;;;;;73.07;35.10;;;4.30;99.90;;;;;;5078091;28;20107;-86
2022/03/18 02:12:24;;;;;;;64.32;33.60;;;4.30;99.90;;;;;;5077227;28;20036;-85
2022/03/18 02:14:50;;;;;;;69.93;34.03;;;4.30;99.90;;;;;;5076667;28;20106;-85
2022/03/18 02:17:17;;;;;;;74.10;34.90;;;4.30;99.90;;;;;;5068985;28;20057;-86
2022/03/18 02:19:45;;;;;;;67.93;33.60;;;4.30;99.90;;;;;;5057314;28;20033;-87
2022/03/18 02:22:13;;;;;;;70.90;36.28;;;4.30;99.90;;;;;;5043115;28;20398;-86
2022/03/18 02:24:41;;;;;;;72.60;33.72;;;4.30;99.90;;;;;;5073931;28;20101;-87
2022/03/18 02:27:08;;;;;;;71.07;35.70;;;4.30;99.90;;;;;;5079917;28;20032;-84
2022/03/18 02:29:34;;;;;;;70.85;34.08;;;4.30;99.90;;;;;;5047905;28;20036;-85
2022/03/18 02:32:01;;;;;;;72.50;35.03;;;4.30;99.90;;;;;;5066451;28;20039;-85
2022/03/18 02:34:28;;;;;;;72.20;33.63;;;4.30;99.90;;;;;;5057783;28;20033;-85
2022/03/18 02:36:54;;;;;;;70.07;34.03;;;4.30;99.90;;;;;;5054472;28;20078;-85
2022/03/18 02:39:20;;;;;;;61.60;31.88;;;4.30;99.90;;;;;;5045460;28;20025;-86
2022/03/18 02:41:47;;;;;;;63.25;33.80;;;4.30;99.90;;;;;;5023853;28;20045;-87
2022/03/18 02:44:13;;;;;;;73.65;33.78;;;4.30;99.90;;;;;;5061473;28;20051;-85
2022/03/18 02:46:39;;;;;;;69.50;33.08;;;4.30;99.90;;;;;;5049654;28;20037;-86
2022/03/18 02:49:05;;;;;;;71.18;33.75;;;4.30;99.90;;;;;;5045722;28;20397;-86
2022/03/18 02:51:32;;;;;;;70.85;33.92;;;4.20;99.90;;;;;;5075745;28;20033;-85
2022/03/18 02:53:59;;;;;;;71.45;34.33;;;4.30;99.90;;;;;;5069521;28;20032;-84
2022/03/18 02:56:25;;;;;;;66.82;33.80;;;4.20;99.90;;;;;;5060368;28;20037;-84
2022/03/18 02:58:51;;;;;;;65.32;32.35;;;4.20;99.90;;;;;;5069625;28;20040;-84
2022/03/18 03:01:17;;;;;;;72.68;34.88;;;4.20;99.90;;;;;;5074054;28;20118;-85
2022/03/18 03:03:43;;;;;;;66.70;34.13;;;4.20;99.90;;;;;;5059208;28;20025;-86
2022/03/18 03:08:53;;;;;;;71.93;34.85;;;4.30;99.90;;;;;;5067796;28;20032;-86
2022/03/18 03:11:22;;;;;;;65.50;33.42;;;4.30;99.90;;;;;;5073455;28;20013;-85
2022/03/18 03:13:49;;;;;;;69.03;33.35;;;4.30;99.90;;;;;;5081039;28;20025;-85
2022/03/18 03:16:14;;;;;;;75.57;33.30;;;4.30;99.90;;;;;;5074269;28;20675;-86
2022/03/18 03:18:40;;;;;;;67.50;32.08;;;4.30;99.90;;;;;;5077814;28;20049;-86
2022/03/18 03:21:06;;;;;;;67.20;33.03;;;4.30;99.90;;;;;;5054099;28;20021;-86
2022/03/18 03:23:32;;;;;;;70.05;34.00;;;4.30;99.90;;;;;;5065991;28;20028;-85
2022/03/18 03:25:58;;;;;;;66.45;33.17;;;4.30;99.90;;;;;;5052676;28;20036;-85
2022/03/18 03:28:23;;;;;;;67.47;33.92;;;4.30;99.90;;;;;;5045784;28;20089;-86
2022/03/18 03:30:49;;;;;;;67.32;32.50;;;4.30;99.90;;;;;;5045797;28;20077;-86
2022/03/18 03:33:16;;;;;;;66.35;34.03;;;4.30;99.90;;;;;;5080772;28;20024;-85
2022/03/18 03:35:43;;;;;;;70.03;33.65;;;4.30;99.90;;;;;;5053465;28;20444;-85
2022/03/18 03:38:10;;;;;;;70.60;34.72;;;4.30;99.90;;;;;;5072822;28;20048;-84
2022/03/18 03:40:37;;;;;;;76.90;34.67;;;4.30;99.90;;;;;;5072247;28;20033;-85
2022/03/18 03:43:03;;;;;;;72.53;33.42;;;4.30;99.90;;;;;;5053978;28;20030;-86
2022/03/18 03:45:29;;;;;;;72.10;34.53;;;4.40;99.90;;;;;;5043706;28;20032;-85
2022/03/18 03:47:55;;;;;;;69.60;34.67;;;4.40;99.90;;;;;;5070301;28;20033;-86
2022/03/18 03:50:21;;;;;;;74.60;34.47;;;4.40;99.90;;;;;;5071495;28;20063;-86
2022/03/18 03:52:47;;;;;;;73.65;34.08;;;4.40;99.90;;;;;;5075844;28;20040;-86
2022/03/18 03:55:13;;;;;;;69.13;34.58;;;4.40;99.90;;;;;;5052940;28;20037;-85
2022/03/18 03:57:40;;;;;;;73.07;33.72;;;4.50;99.90;;;;;;5073606;28;20028;-85
2022/03/18 04:00:11;;;;;;;71.65;34.35;;;4.50;99.90;;;;;;5067128;28;20047;-84
2022/03/18 04:02:37;;;;;;;73.63;35.40;;;4.50;99.90;;;;;;5057616;28;20028;-85
2022/03/18 04:05:07;;;;;;;73.95;34.42;;;4.50;99.90;;;;;;5048264;28;20052;-86
2022/03/18 04:07:35;;;;;;;69.95;33.53;;;4.50;99.90;;;;;;5054452;28;20036;-85
2022/03/18 04:10:01;;;;;;;73.13;35.45;;;4.50;99.90;;;;;;5033397;28;20117;-86
2022/03/18 04:12:27;;;;;;;72.18;34.95;;;4.50;99.90;;;;;;5040813;28;20040;-85
2022/03/18 04:14:52;;;;;;;72.97;35.67;;;4.50;99.90;;;;;;5063816;28;20017;-85
2022/03/18 04:17:18;;;;;;;74.32;35.92;;;4.60;99.90;;;;;;5060824;28;20017;-84
2022/03/18 04:19:44;;;;;;;76.40;34.92;;;4.60;99.90;;;;;;5061344;28;20017;-85
2022/03/18 04:22:10;;;;;;;77.50;35.88;;;4.60;99.90;;;;;;5060053;28;20017;-85
2022/03/18 04:24:36;;;;;;;72.53;35.83;;;4.60;99.90;;;;;;5041595;28;20053;-86
2022/03/18 04:27:01;;;;;;;72.15;35.50;;;4.50;99.90;;;;;;5078702;28;20093;-86
2022/03/18 04:29:27;;;;;;;77.65;35.50;;;4.50;99.90;;;;;;5044925;28;20033;-85
2022/03/18 04:31:53;;;;;;;75.22;35.63;;;4.50;99.90;;;;;;5070413;28;20021;-86
2022/03/18 04:34:19;;;;;;;75.30;34.92;;;4.50;99.90;;;;;;5052773;28;20025;-85
2022/03/18 04:36:45;;;;;;;71.53;35.35;;;4.50;99.90;;;;;;5059826;28;20080;-86
2022/03/18 04:39:11;;;;;;;73.60;36.45;;;4.50;99.90;;;;;;5074541;28;20111;-86
2022/03/18 04:41:37;;;;;;;79.55;36.55;;;4.50;99.90;;;;;;5068927;28;20043;-86
2022/03/18 04:44:03;;;;;;;85.43;37.78;;;4.50;99.90;;;;;;5041230;28;20037;-86
2022/03/18 04:46:31;;;;;;;72.30;35.72;;;4.50;99.90;;;;;;5049961;28;20030;-86
2022/03/18 04:49:00;;;;;;;80.75;34.83;;;4.50;99.90;;;;;;5031255;28;20030;-85
2022/03/18 04:51:27;;;;;;;79.72;36.40;;;4.50;99.90;;;;;;5049958;28;20032;-87
2022/03/18 04:53:53;;;;;;;76.60;37.13;;;4.50;99.90;;;;;;5060348;28;20037;-86
2022/03/18 04:59:03;;;;;;;77.33;36.83;;;4.50;99.90;;;;;;5054010;28;20029;-85
2022/03/18 05:01:29;;;;;;;75.85;36.55;;;4.50;99.90;;;;;;5060067;28;20274;-86
2022/03/18 05:03:55;;;;;;;76.55;37.10;;;4.50;99.90;;;;;;5062835;28;20029;-84
2022/03/18 05:06:21;;;;;;;76.60;35.95;;;4.60;99.90;;;;;;5052615;28;20021;-87
2022/03/18 05:08:47;;;;;;;76.95;36.60;;;4.50;99.90;;;;;;5063465;28;20059;-87
2022/03/18 05:11:13;;;;;;;76.80;36.35;;;4.50;99.90;;;;;;5067972;28;20029;-87
2022/03/18 05:13:39;;;;;;;78.10;36.22;;;4.50;99.90;;;;;;5075476;28;20440;-85
2022/03/18 05:16:06;;;;;;;74.40;37.50;;;4.60;99.90;;;;;;5041981;28;20072;-88
2022/03/18 05:18:31;;;;;;;80.38;38.15;;;4.60;99.90;;;;;;5023763;28;20056;-86
2022/03/18 05:20:57;;;;;;;77.13;36.45;;;4.60;99.90;;;;;;5051710;28;20555;-88
2022/03/18 05:23:23;;;;;;;72.18;36.55;;;4.60;99.90;;;;;;5055157;28;20025;-86
2022/03/18 05:25:50;;;;;;;82.55;38.17;;;4.70;99.90;;;;;;5048755;28;20515;-86
2022/03/18 05:28:17;;;;;;;78.05;36.72;;;4.60;99.90;;;;;;5068218;28;20049;-86
2022/03/18 05:30:44;;;;;;;75.03;36.92;;;4.60;99.90;;;;;;5035708;28;20504;-86
2022/03/18 05:33:10;;;;;;;75.97;37.28;;;4.60;99.90;;;;;;5062330;28;20068;-86
2022/03/18 05:35:35;;;;;;;74.95;36.83;;;4.60;99.90;;;;;;5052074;28;20048;-86
2022/03/18 05:38:01;;;;;;;78.85;37.67;;;4.60;99.90;;;;;;5051622;28;20033;-87
2022/03/18 05:40:27;;;;;;;79.45;37.72;;;4.70;99.90;;;;;;5032508;28;20029;-85
2022/03/18 05:42:53;;;;;;;77.32;36.78;;;4.70;99.90;;;;;;5054560;28;20021;-85
2022/03/18 05:45:19;;;;;;;79.22;37.13;;;4.70;99.90;;;;;;5051691;28;20407;-85
2022/03/18 05:47:44;;;;;;;82.63;37.92;;;4.70;99.90;;;;;;5070319;28;20021;-85
2022/03/18 05:50:15;;;;;;;79.95;37.83;;;4.70;99.90;;;;;;5078526;28;20029;-86
2022/03/18 05:52:45;;;;;;;76.88;37.78;;;4.70;99.90;;;;;;5079018;28;20040;-86
2022/03/18 05:55:11;;;;;;;82.03;38.63;;;4.70;99.90;;;;;;5066375;28;20064;-85
2022/03/18 05:57:38;;;;;;;78.25;37.72;;;4.80;99.90;;;;;;5070892;28;20068;-86
2022/03/18 06:00:05;;;;;;;74.47;37.15;;;4.80;99.90;;;;;;5076468;28;20025;-87
2022/03/18 06:02:38;;;;;;;83.03;39.13;;;4.80;99.90;;;;;;5071862;28;20025;-88
2022/03/18 06:05:05;;;;;;;78.63;36.95;;;4.80;99.90;;;;;;5068807;28;20093;-88
2022/03/18 06:07:31;;;;;;;83.72;39.05;;;4.90;99.90;;;;;;5048842;28;20017;-86
2022/03/18 06:12:42;;;;;;;;;;;5.00;99.90;;;;;;5051392;28;20060;-87
2022/03/18 06:15:08;;;;;;;88.18;38.00;;;5.00;99.90;;;;;;5080082;28;19908;-83
2022/03/18 06:17:34;;;;;;;88.70;40.75;;;5.00;99.90;;;;;;5054942;28;20036;-86
2022/03/18 06:19:59;;;;;;;89.95;39.70;;;5.00;99.90;;;;;;5030134;28;20021;-86
2022/03/18 06:22:25;;;;;;;88.28;40.22;;;5.00;99.90;;;;;;5053760;28;20025;-84
2022/03/18 06:24:51;;;;;;;80.50;39.20;;;5.00;99.90;;;;;;5040179;28;20536;-86
2022/03/18 06:27:16;;;;;;;86.43;40.30;;;5.10;99.90;;;;;;5064790;28;20059;-87
2022/03/18 06:29:43;;;;;;;83.18;38.90;;;5.10;99.90;;;;;;5079359;28;20031;-86
2022/03/18 06:32:10;;;;;;;79.57;39.80;;;5.20;99.90;;;;;;5075377;28;20078;-85
2022/03/18 06:34:37;;;;;;;82.85;37.92;;;5.30;99.90;;;;;;5040975;28;20024;-87
2022/03/18 06:37:03;;;;;;;86.57;38.72;;;5.30;99.90;;;;;;5031222;28;20512;-84
2022/03/18 06:39:28;;;;;;;85.40;39.50;;;5.40;99.90;;;;;;5063388;28;20013;-86
2022/03/18 06:41:56;;;;;;;78.85;38.05;;;5.50;99.90;;;;;;5070938;28;20029;-84
2022/03/18 06:44:22;;;;;;;81.50;39.40;;;5.60;99.90;;;;;;5079010;22;20042;-83
2022/03/18 06:46:48;;;;;;;86.38;39.95;;;5.70;99.90;;;;;;5030929;28;20042;-82
2022/03/18 06:49:14;;;;;;;83.47;39.22;;;5.70;99.90;;;;;;5025232;28;20021;-83
2022/03/18 06:51:40;;;;;;;88.20;40.03;;;5.70;99.90;;;;;;5027544;28;20081;-84
2022/03/18 06:54:06;;;;;;;81.15;39.38;;;5.70;99.90;;;;;;5042278;28;20022;-85
2022/03/18 06:56:33;;;;;;;87.30;39.03;;;5.80;99.90;;;;;;5046396;28;20053;-83
2022/03/18 06:59:00;;;;;;;88.72;40.38;;;5.80;99.90;;;;;;5046250;28;20040;-86
2022/03/18 07:01:26;;;;;;;89.32;40.92;;;5.70;99.90;;;;;;5029383;28;20029;-84
2022/03/18 07:03:52;;;;;;;87.15;41.03;;;5.60;99.90;;;;;;5026549;28;20033;-85
2022/03/18 07:06:18;;;;;;;91.35;40.67;;;5.60;99.90;;;;;;5029207;28;20022;-85
2022/03/18 07:08:44;;;;;;;84.70;39.38;;;5.60;99.90;;;;;;5025955;28;20097;-84
2022/03/18 07:11:13;;;;;;;79.18;38.50;;;5.80;99.90;;;;;;5041242;28;20040;-86
2022/03/18 07:13:43;;;;;;;83.65;38.53;;;6.00;99.90;;;;;;5049794;28;20017;-84
2022/03/18 07:18:54;;;;;;;82.47;39.05;;;6.30;99.90;;;;;;5042561;28;20033;-84
2022/03/18 07:21:20;;;;;;;77.95;40.10;;;6.30;99.90;;;;;;5038790;28;20029;-85
2022/03/18 07:23:47;;;;;;;86.45;39.85;;;6.40;99.90;;;;;;5051325;28;20026;-84
2022/03/18 07:26:12;;;;;;;73.90;37.88;;;6.50;99.90;;;;;;5015491;28;20022;-85
2022/03/18 07:28:38;;;;;;;86.25;39.80;;;6.60;99.90;;;;;;5032980;28;20032;-84
2022/03/18 07:31:04;;;;;;;89.88;39.15;;;6.70;99.90;;;;;;5035803;28;20051;-85
2022/03/18 07:33:30;;;;;;;84.82;39.15;;;6.80;99.90;;;;;;5054255;28;20049;-83
2022/03/18 07:35:56;;;;;;;80.10;38.13;;;6.80;99.90;;;;;;5030296;28;20025;-85
2022/03/18 07:38:22;;;;;;;79.82;39.28;;;7.00;99.90;;;;;;5044338;28;20037;-86
2022/03/18 07:40:48;;;;;;;83.45;39.63;;;7.20;99.90;;;;;;5042352;28;20025;-83
2022/03/18 07:43:14;;;;;;;87.45;40.88;;;7.20;99.90;;;;;;5038672;28;20112;-87
2022/03/18 07:45:40;;;;;;;83.20;40.67;;;7.20;99.90;;;;;;5008688;28;20024;-86
2022/03/18 07:48:08;;;;;;;89.47;40.15;;;7.20;99.90;;;;;;5027955;28;20056;-86
2022/03/18 07:50:36;;;;;;;88.03;39.25;;;7.40;99.90;;;;;;5030847;28;20021;-85
2022/03/18 07:53:04;;;;;;;81.72;39.65;;;7.60;99.90;;;;;;5027553;28;20025;-83
2022/03/18 07:55:31;;;;;;;89.03;40.33;;;7.60;99.90;;;;;;5039165;28;20029;-84
2022/03/18 07:57:58;;;;;;;89.93;40.10;;;7.60;99.90;;;;;;5035329;28;20044;-86
2022/03/18 08:00:24;;;;;;;79.70;39.95;;;7.70;99.90;;;;;;5042482;28;20037;-84
2022/03/18 08:02:52;;;;;;;84.15;39.97;;;7.80;99.90;;;;;;5040125;28;20021;-86
2022/03/18 08:05:19;;;;;;;78.88;38.42;;;7.90;99.90;;;;;;5025899;28;20089;-86
2022/03/18 08:07:48;;;;;;;80.75;38.60;;;8.00;99.90;;;;;;5036661;28;20473;-85
2022/03/18 08:10:15;;;;;;;85.57;41.08;;;8.20;99.90;;;;;;5006398;28;20028;-85
2022/03/18 08:12:43;;;;;;;77.03;39.03;;;8.30;99.90;;;;;;5035587;28;20025;-84
2022/03/18 08:15:12;;;;;;;73.65;37.45;;;8.50;99.90;;;;;;5008569;28;20017;-84
2022/03/18 08:17:39;;;;;;;86.78;40.97;;;8.60;99.90;;;;;;5022109;28;20049;-83
2022/03/18 08:20:07;;;;;;;74.80;39.55;;;8.60;99.90;;;;;;5020833;28;20040;-87
2022/03/18 08:22:33;;;;;;;78.82;38.30;;;8.50;99.90;;;;;;5032101;28;20049;-86
2022/03/18 08:24:59;;;;;;;83.03;39.58;;;8.60;99.90;;;;;;5038372;28;20013;-84
2022/03/18 08:27:25;;;;;;;73.68;38.55;;;8.90;99.90;;;;;;5042662;28;20053;-87
2022/03/18 08:29:53;;;;;;;76.13;39.78;;;9.20;99.90;;;;;;5021977;28;20025;-85
2022/03/18 08:32:18;;;;;;;72.55;39.42;;;9.10;99.90;;;;;;5036195;28;20172;-86
2022/03/18 08:34:44;;;;;;;75.32;39.63;;;9.10;99.90;;;;;;5040146;28;20409;-85
2022/03/18 08:37:10;;;;;;;85.13;40.72;;;9.20;99.90;;;;;;5040452;28;20037;-86
2022/03/18 08:39:37;;;;;;;76.10;39.38;;;9.30;99.90;;;;;;5046831;28;20036;-84
2022/03/18 08:42:03;;;;;;;71.45;37.72;;;9.40;99.90;;;;;;5049806;28;20025;-85
2022/03/18 08:44:29;;;;;;;72.70;39.33;;;9.50;99.90;;;;;;5053226;28;20097;-82
2022/03/18 08:46:56;;;;;;;75.93;39.33;;;9.40;99.90;;;;;;5040256;28;20025;-87
2022/03/18 08:49:22;;;;;;;68.82;37.75;;;9.50;99.90;;;;;;5021186;28;20037;-86
2022/03/18 08:51:47;;;;;;;76.70;39.15;;;9.60;99.90;;;;;;5037097;28;20064;-86
2022/03/18 08:54:13;;;;;;;83.30;38.92;;;9.70;99.90;;;;;;5021485;28;20022;-86
2022/03/18 08:56:39;;;;;;;77.28;38.15;;;9.80;99.90;;;;;;5036402;28;20036;-87
2022/03/18 08:59:06;;;;;;;67.57;36.58;;;9.80;99.90;;;;;;5044020;28;20037;-87
2022/03/18 09:01:37;;;;;;;65.95;35.60;;;10.00;99.90;;;;;;5026650;28;20101;-86
2022/03/18 09:04:03;;;;;;;66.63;36.20;;;10.10;99.90;;;;;;5024309;28;20481;-86
2022/03/18 09:06:29;;;;;;;67.03;34.97;;;10.20;99.90;;;;;;5026934;28;20092;-86
2022/03/18 09:09:03;;;;;;;64.43;34.15;;;10.20;99.90;;;;;;5047013;28;20097;-85
2022/03/18 09:11:31;;;;;;;65.90;35.05;;;10.40;99.90;;;;;;5057201;28;20017;-85
2022/03/18 09:13:57;;;;;;;63.22;34.58;;;10.60;99.90;;;;;;5038266;28;20105;-86
2022/03/18 09:16:23;;;;;;;63.72;37.08;;;10.60;99.90;;;;;;5036794;28;20018;-86
2022/03/18 09:18:49;;;;;;;58.72;33.25;;;10.70;99.90;;;;;;5042692;28;20029;-87
2022/03/18 09:21:14;;;;;;;63.40;32.75;;;10.70;99.90;;;;;;5028658;28;20029;-85
2022/03/18 09:23:41;;;;;;;63.40;32.90;;;10.80;99.90;;;;;;5043902;28;20122;-86
2022/03/18 09:26:07;;;;;;;65.82;33.92;;;10.80;99.90;;;;;;5027889;28;20029;-85
2022/03/18 09:28:33;;;;;;;64.85;35.03;;;10.70;99.90;;;;;;5024815;28;20029;-86
2022/03/18 09:30:59;;;;;;;58.33;33.30;;;10.90;99.90;;;;;;5050010;28;20410;-85
2022/03/18 09:33:25;;;;;;;65.72;33.90;;;11.10;99.90;;;;;;5044233;28;20028;-83
2022/03/18 09:35:51;;;;;;;67.10;33.97;;;11.80;99.90;;;;;;5047604;28;20052;-87
2022/03/18 09:38:16;;;;;;;60.88;34.58;;;12.20;99.90;;;;;;5044044;28;20018;-87
2022/03/18 09:40:45;;;;;;;61.03;34.05;;;12.50;99.90;;;;;;5045952;28;20029;-87
2022/03/18 09:43:11;;;;;;;61.03;34.60;;;12.40;99.90;;;;;;5030355;28;20049;-86
2022/03/18 09:45:39;;;;;;;57.78;33.75;;;12.50;99.90;;;;;;5021848;28;20049;-86
2022/03/18 09:48:10;;;;;;;63.53;34.58;;;12.90;99.90;;;;;;5023822;28;20049;-85
2022/03/18 09:50:37;;;;;;;70.63;35.47;;;13.20;99.90;;;;;;5037708;28;20057;-86
2022/03/18 09:53:05;;;;;;;59.97;32.83;;;13.40;99.90;;;;;;5038224;28;20021;-86
2022/03/18 09:55:34;;;;;;;58.63;32.58;;;13.70;99.90;;;;;;5035851;28;20484;-86
2022/03/18 09:58:00;;;;;;;59.10;34.00;;;13.80;99.90;;;;;;5025494;28;20037;-86
2022/03/18 10:00:27;;;;;;;60.60;35.10;;;13.80;99.90;;;;;;5043143;28;20437;-85
2022/03/18 10:03:13;;;;;;;55.63;33.90;;;13.90;99.90;;;;;;5042259;28;20041;-85
2022/03/18 10:05:58;;;;;;;66.88;36.47;;;14.10;99.90;;;;;;5042691;28;20029;-85
2022/03/18 10:08:24;;;;;;;57.10;32.45;;;14.30;99.90;;;;;;5041414;28;20363;-86
2022/03/18 10:10:50;;;;;;;59.53;33.40;;;14.90;99.40;;;;;;5025312;28;20088;-85
2022/03/18 10:13:16;;;;;;;54.55;33.83;;;15.40;98.30;;;;;;5014121;28;20381;-86
2022/03/18 10:15:43;;;;;;;58.78;33.55;;;15.70;97.50;;;;;;5023892;28;20026;-85
2022/03/18 10:18:11;;;;;;;58.05;33.15;;;16.20;96.70;;;;;;5014359;28;20397;-85
2022/03/18 10:20:41;;;;;;;51.35;30.70;;;16.70;96.00;;;;;;5039300;28;20022;-88
2022/03/18 10:23:16;;;;;;;52.60;32.95;;;17.50;94.70;;;;;;5038694;28;20026;-89
2022/03/18 10:25:52;;;;;;;57.25;32.67;;;16.60;94.50;;;;;;5043618;28;20018;-88
2022/03/18 10:28:47;;;;;;;52.45;32.00;;;16.40;95.00;;;;;;5013552;28;20072;-89
2022/03/18 10:31:14;;;;;;;53.55;33.00;;;17.00;94.20;;;;;;5043993;28;20148;-87
2022/03/18 10:37:04;;;;;;;52.13;32.30;;;17.20;93.50;;;;;;5030897;28;20025;-89
2022/03/18 10:39:23;;;;;;;54.38;32.95;;;17.20;93.20;;;;;;5030141;28;20036;-89
2022/03/18 10:41:49;;;;;;;52.75;33.53;;;17.10;93.00;;;;;;5047049;28;20033;-88
2022/03/18 10:44:18;;;;;;;56.28;34.92;;;17.00;93.10;;;;;;5050219;28;20824;-89
2022/03/18 10:46:44;;;;;;;56.10;31.83;;;17.30;92.50;;;;;;5033701;28;20021;-87
2022/03/18 10:49:10;;;;;;;50.75;32.58;;;18.10;92.10;;;;;;5048835;28;20037;-89
2022/03/18 10:51:40;;;;;;;49.50;32.00;;;18.40;91.20;;;;;;5032360;28;20044;-90
2022/03/18 10:54:06;;;;;;;52.70;32.58;;;18.20;91.00;;;;;;5053391;28;20029;-91
2022/03/18 10:56:56;;;;;;;54.85;32.53;;;17.90;91.40;;;;;;5030152;28;20028;-89
2022/03/18 10:59:22;;;;;;;49.83;32.28;;;18.50;90.60;;;;;;5046494;28;20030;-89
2022/03/18 11:01:51;;;;;;;46.08;30.55;;;18.70;90.00;;;;;;5040473;28;20017;-90
2022/03/18 11:04:18;;;;;;;50.03;31.15;;;18.80;89.30;;;;;;5030354;28;20033;-85
2022/03/18 11:07:29;;;;;;;49.03;29.95;;;18.80;88.80;;;;;;5049809;28;20081;-88
2022/03/18 11:11:07;;;;;;;49.15;29.67;;;18.90;88.10;;;;;;5051554;28;20029;-86
2022/03/18 11:12:24;;;;;;;43.92;28.60;;;19.30;86.30;;;;;;5057683;28;20060;-89
2022/03/18 11:14:54;;;;;;;43.55;28.38;;;19.50;85.80;;;;;;5037740;28;20064;-89
2022/03/18 11:17:21;;;;;;;41.42;27.48;;;20.10;84.10;;;;;;5050209;28;20056;-89
2022/03/18 11:19:48;;;;;;;44.03;28.38;;;20.30;81.10;;;;;;5017806;28;20017;-88
2022/03/18 11:22:16;;;;;;;45.63;27.75;;;19.10;81.30;;;;;;5034458;28;20030;-87
2022/03/18 11:24:43;;;;;;;45.30;28.15;;;19.00;82.60;;;;;;5048004;28;20018;-89
2022/03/18 11:27:11;;;;;;;42.45;27.50;;;19.20;82.70;;;;;;5047619;28;20028;-88
2022/03/18 11:29:38;;;;;;;44.65;28.42;;;19.90;81.60;;;;;;5051172;28;20021;-87
2022/03/18 11:32:09;;;;;;;41.55;27.52;;;19.90;79.40;;;;;;5046984;28;20068;-88
2022/03/18 11:34:46;;;;;;;40.92;27.95;;;19.10;80.50;;;;;;5031380;28;20033;-85
2022/03/18 11:37:12;;;;;;;43.40;28.33;;;19.70;80.40;;;;;;5052673;28;20030;-89
2022/03/18 11:39:38;;;;;;;44.13;28.05;;;19.70;79.60;;;;;;5027140;28;20029;-86
2022/03/18 11:44:42;;;;;;;42.28;28.95;;;20.70;78.30;;;;;;5179099;22;20029;-91
2022/03/18 11:47:32;;;;;;;42.75;28.27;;;20.80;77.00;;;;;;5040954;28;20018;-92
2022/03/18 11:50:00;;;;;;;42.00;27.73;;;20.90;76.40;;;;;;5049645;28;20010;-92
2022/03/18 11:52:29;;;;;;;44.85;28.90;;;21.50;74.50;;;;;;5019933;28;20033;-90
2022/03/18 11:55:19;;;;;;;44.67;28.00;;;21.60;73.70;;;;;;5035683;28;20053;-91
2022/03/18 11:57:55;;;;;;;43.80;27.90;;;21.50;74.20;;;;;;5035919;28;20009;-93
2022/03/18 12:00:41;;;;;;;38.83;24.25;;;21.00;73.90;;;;;;5035718;28;20025;-92
2022/03/18 12:03:27;;;;;;;38.78;24.60;;;21.60;72.20;;;;;;5029193;28;20053;-91
2022/03/18 12:05:55;;;;;;;37.05;24.45;;;22.90;69.90;;;;;;5046295;28;20014;-88
2022/03/18 12:08:50;;;;;;;38.42;26.02;;;23.10;67.90;;;;;;5030150;28;20268;-92
2022/03/18 12:11:26;;;;;;;35.28;25.15;;;22.80;67.90;;;;;;5029604;28;20026;-86
2022/03/18 12:13:52;;;;;;;32.63;23.75;;;22.70;67.20;;;;;;5030995;28;20315;-89
2022/03/18 12:16:22;;;;;;;36.47;23.63;;;23.20;66.00;;;;;;5032102;28;20033;-89
2022/03/18 12:18:53;;;;;;;38.17;25.15;;;24.00;63.90;;;;;;5047361;28;20340;-89
2022/03/18 12:21:33;;;;;;;36.47;24.58;;;24.50;62.50;;;;;;5034585;28;20075;-87
2022/03/18 12:24:07;;;;;;;38.08;25.77;;;24.00;62.90;;;;;;5041311;28;20022;-88
2022/03/18 12:26:34;;;;;;;36.10;23.70;;;24.40;62.40;;;;;;5050163;28;20017;-86
2022/03/18 12:29:00;;;;;;;33.88;24.27;;;24.50;61.70;;;;;;5025912;28;20029;-86
2022/03/18 12:31:26;;;;;;;41.60;25.50;;;24.60;61.10;;;;;;5039375;28;20093;-89
2022/03/18 12:34:00;;;;;;;36.17;24.77;;;24.20;60.90;;;;;;5037227;28;20125;-85
2022/03/18 12:36:28;;;;;;;37.30;25.02;;;23.80;61.10;;;;;;5033592;28;20034;-88
2022/03/18 12:39:08;;;;;;;40.90;23.67;;;23.40;61.10;;;;;;5051641;28;20018;-86
2022/03/18 12:41:34;;;;;;;35.95;24.45;;;22.60;61.70;;;;;;5069395;28;20041;-85
2022/03/18 12:44:00;;;;;;;32.92;23.80;;;22.50;61.20;;;;;;5055971;28;20037;-89
2022/03/18 12:46:28;;;;;;;33.00;22.40;;;22.70;60.80;;;;;;5038061;28;20029;-88
2022/03/18 12:48:56;;;;;;;30.95;21.45;;;23.40;60.10;;;;;;5015082;28;20038;-88
2022/03/18 12:51:23;;;;;;;32.15;21.83;;;24.10;58.70;;;;;;5040714;28;20029;-89
2022/03/18 12:53:49;;;;;;;33.28;23.17;;;23.80;58.50;;;;;;5030697;28;20017;-89
2022/03/18 12:56:32;;;;;;;35.03;24.50;;;23.50;59.30;;;;;;5031209;28;20023;-88
2022/03/18 12:59:00;;;;;;;33.00;23.52;;;24.30;58.30;;;;;;5025965;28;20013;-88